Portada
METAR-TAF:

METAR-TAF

Aeropuertos :

Aeropuerto Internacional de Damasco

Damasco, Siria

latitud: 33-25N, longitud: 036-31E, altitud: 608 m

Observación

El informe se hizo hace 44 minutos, a las 00:00 UTC
Viento 3 kt del norte-noreste
Temperatura 4°C
Humedad 81%
Presión 1017 hPa
Visibilidad: 0500 m
niebla

METAR: OSDI 060000Z 03003KT 0500 FG 04/01 Q1017

Hora: 02:44 (00:44 UTC)

Pronóstico

Pronóstico válido del 06 a las 00 UTC al 07 a las 06 UTC
Viento 3 kt con dirección variable
Visibilidad: 3000 m
neblina
Probabilidad 30% :
Temporalmente
del 06 a las 02 UTC al 06 a las 07 UTC
Visibilidad: 0200 m
niebla
Evolucionando progresivamente
del 06 a las 08 UTC al 06 a las 10 UTC
Viento 12 kt del suroeste
Visibilidad: 6000 m
Nubes dispersas a una altura de 3000 ft

TAF: OSDI 0600/0706 VRB03KT 3000 BR PROB30 TEMPO 0602/0607 0200 FG BECMG 0608/0610 23012KT 6000 SCT030

Observaciones y pronósticos meteorológicos de más de 4000 aeropuertos (mensajes METAR y TAF).

Los puntos amarillos y rojos representan las estaciones disponibles.

Ponga el ratón en el punto deseado para ver el nombre de la estación.

Haga clic para ver las observaciones y los pronósticos meteorológicos.

Para cambiar el mapa : haga clic en los botones verdes con una cruz de color negro para hacer un zoom, en el botón verde con un guión para alejar o en las flechas verdes para mapas adyacentes.


METAR-TAF: